EZY150 EPGD-EPRZ
Flight info
| Callsign | EZY150 |
|---|---|
| Flight time | 0h 49m |
| Altitude | 35000 |
| Route | IRLUN N133 PENEX/N0368F270 N133 KOTEK L981 ETITI |
| Aircraft | A20N/M-SDE2E3FGHIRWXY/LB1 |
Departure
| Time | 2026-04-23 18:49 |
|---|---|
| Airport | Gdańsk Lech Wałęsa Airport (EPGD) |
Arrival
| Time | 2026-04-23 19:39 |
|---|---|
| Airport | Rzeszów-Jasionka Airport (EPRZ) |
| Time | Latitude | Longitude | Altitude | Speed | Heading |
|---|---|---|---|---|---|
| 2026-04-23 18:23 | 54.38026 | 18.46519 | 459 ft | 0 kts | 203° |
| 2026-04-23 18:42 | 54.38016 | 18.46512 | 459 ft | 6 kts | 203° |
| 2026-04-23 18:42 | 54.37959 | 18.46543 | 459 ft | 14 kts | 121° |
| 2026-04-23 18:43 | 54.37905 | 18.46746 | 458 ft | 23 kts | 113° |
| 2026-04-23 18:43 | 54.37831 | 18.47044 | 459 ft | 30 kts | 113° |
| 2026-04-23 18:43 | 54.37751 | 18.47370 | 460 ft | 30 kts | 113° |
| 2026-04-23 18:43 | 54.37668 | 18.47701 | 464 ft | 30 kts | 113° |
| 2026-04-23 18:44 | 54.37589 | 18.48023 | 469 ft | 29 kts | 113° |
| 2026-04-23 18:44 | 54.37513 | 18.48333 | 474 ft | 27 kts | 112° |
| 2026-04-23 18:44 | 54.37443 | 18.48611 | 482 ft | 25 kts | 114° |
| 2026-04-23 18:44 | 54.37384 | 18.48848 | 485 ft | 20 kts | 113° |
| 2026-04-23 18:45 | 54.37329 | 18.49075 | 487 ft | 14 kts | 112° |
| 2026-04-23 18:45 | 54.37318 | 18.49119 | 493 ft | 10 kts | 112° |
| 2026-04-23 18:45 | 54.37269 | 18.49256 | 493 ft | 15 kts | 146° |
| 2026-04-23 18:45 | 54.37226 | 18.49266 | 492 ft | 0 kts | 199° |
| 2026-04-23 18:48 | 54.37221 | 18.49262 | 493 ft | 4 kts | 200° |
| 2026-04-23 18:48 | 54.37159 | 18.49143 | 490 ft | 21 kts | 253° |
| 2026-04-23 18:48 | 54.37207 | 18.48844 | 492 ft | 33 kts | 294° |
| 2026-04-23 18:48 | 54.37354 | 18.48252 | 482 ft | 86 kts | 293° |
| 2026-04-23 18:49 | 54.37664 | 18.47001 | 474 ft | 137 kts | 293° |
| 2026-04-23 18:49 | 54.38018 | 18.45540 | 1021 ft | 133 kts | 292° |
| 2026-04-23 18:49 | 54.38369 | 18.44024 | 1483 ft | 144 kts | 292° |
| 2026-04-23 18:49 | 54.38737 | 18.42405 | 2088 ft | 145 kts | 295° |
| 2026-04-23 18:50 | 54.39028 | 18.41252 | 2408 ft | 168 kts | 297° |
| 2026-04-23 18:50 | 54.39716 | 18.38844 | 2987 ft | 168 kts | 301° |
| 2026-04-23 18:50 | 54.40314 | 18.37000 | 2971 ft | 185 kts | 303° |
| 2026-04-23 18:50 | 54.41001 | 18.35072 | 3538 ft | 190 kts | 303° |
| 2026-04-23 18:51 | 54.41506 | 18.32899 | 4100 ft | 203 kts | 287° |
| 2026-04-23 18:51 | 54.41854 | 18.30421 | 4677 ft | 221 kts | 292° |
| 2026-04-23 18:51 | 54.42344 | 18.27910 | 5647 ft | 227 kts | 290° |
| 2026-04-23 18:51 | 54.42377 | 18.25032 | 6287 ft | 260 kts | 262° |
| 2026-04-23 18:52 | 54.41517 | 18.22145 | 7001 ft | 285 kts | 232° |
| 2026-04-23 18:52 | 54.39887 | 18.20112 | 7981 ft | 297 kts | 205° |
| 2026-04-23 18:52 | 54.37836 | 18.19424 | 8952 ft | 307 kts | 179° |
| 2026-04-23 18:52 | 54.35739 | 18.20264 | 9893 ft | 315 kts | 153° |
| 2026-04-23 18:53 | 54.33961 | 18.22516 | 10578 ft | 327 kts | 130° |
| 2026-04-23 18:53 | 54.32459 | 18.25624 | 10913 ft | 351 kts | 127° |
| 2026-04-23 18:53 | 54.30689 | 18.28688 | 11377 ft | 371 kts | 138° |
| 2026-04-23 18:53 | 54.28610 | 18.31277 | 12180 ft | 377 kts | 146° |
| 2026-04-23 18:54 | 54.26311 | 18.33546 | 13016 ft | 384 kts | 151° |
| 2026-04-23 18:54 | 54.23911 | 18.35621 | 13817 ft | 391 kts | 153° |
| 2026-04-23 18:54 | 54.21432 | 18.37645 | 14564 ft | 397 kts | 154° |
| 2026-04-23 18:54 | 54.18915 | 18.39673 | 15274 ft | 403 kts | 154° |
| 2026-04-23 18:55 | 54.16369 | 18.41727 | 15999 ft | 408 kts | 153° |
| 2026-04-23 18:55 | 54.13777 | 18.43828 | 16693 ft | 415 kts | 153° |
| 2026-04-23 18:55 | 54.11149 | 18.45962 | 17391 ft | 420 kts | 153° |
| 2026-04-23 18:55 | 54.08498 | 18.48118 | 18081 ft | 426 kts | 153° |
| 2026-04-23 18:56 | 54.06713 | 18.49568 | 18518 ft | 430 kts | 153° |
| 2026-04-23 18:56 | 54.03079 | 18.52519 | 19334 ft | 436 kts | 152° |
| 2026-04-23 18:56 | 54.00355 | 18.54726 | 19943 ft | 441 kts | 152° |
| 2026-04-23 18:56 | 53.97564 | 18.56986 | 20531 ft | 446 kts | 152° |
| 2026-04-23 18:57 | 53.94743 | 18.59267 | 21134 ft | 451 kts | 152° |
| 2026-04-23 18:57 | 53.91895 | 18.61566 | 21726 ft | 456 kts | 152° |
| 2026-04-23 18:57 | 53.89004 | 18.63897 | 22315 ft | 461 kts | 152° |
| 2026-04-23 18:57 | 53.86090 | 18.66243 | 22894 ft | 466 kts | 152° |
| 2026-04-23 18:58 | 53.83145 | 18.68610 | 23469 ft | 471 kts | 152° |
| 2026-04-23 18:58 | 53.80174 | 18.70995 | 23983 ft | 475 kts | 152° |
| 2026-04-23 18:58 | 53.77176 | 18.73397 | 24493 ft | 478 kts | 152° |
| 2026-04-23 18:58 | 53.74191 | 18.75786 | 24976 ft | 482 kts | 152° |
| 2026-04-23 18:59 | 53.71147 | 18.78218 | 25459 ft | 485 kts | 152° |
| 2026-04-23 18:59 | 53.68078 | 18.80666 | 25907 ft | 489 kts | 152° |
| 2026-04-23 18:59 | 53.64981 | 18.83132 | 26375 ft | 493 kts | 152° |
| 2026-04-23 18:59 | 53.61870 | 18.85607 | 26845 ft | 496 kts | 152° |
| 2026-04-23 19:00 | 53.58738 | 18.88092 | 27288 ft | 499 kts | 152° |
| 2026-04-23 19:00 | 53.55582 | 18.90594 | 27720 ft | 503 kts | 152° |
| 2026-04-23 19:00 | 53.52411 | 18.93103 | 28142 ft | 506 kts | 152° |
| 2026-04-23 19:00 | 53.49217 | 18.95627 | 28540 ft | 509 kts | 152° |
| 2026-04-23 19:01 | 53.46001 | 18.98162 | 28938 ft | 512 kts | 152° |
| 2026-04-23 19:01 | 53.43853 | 18.99854 | 29182 ft | 514 kts | 152° |
| 2026-04-23 19:01 | 53.40598 | 19.02414 | 29561 ft | 517 kts | 152° |
| 2026-04-23 19:01 | 53.36257 | 19.05821 | 30057 ft | 522 kts | 152° |
| 2026-04-23 19:02 | 53.34029 | 19.07567 | 30284 ft | 524 kts | 152° |
| 2026-04-23 19:02 | 53.30717 | 19.10158 | 30601 ft | 526 kts | 152° |
| 2026-04-23 19:02 | 53.26307 | 19.13601 | 31046 ft | 530 kts | 152° |
| 2026-04-23 19:02 | 53.24095 | 19.15325 | 31286 ft | 530 kts | 152° |
| 2026-04-23 19:03 | 53.20747 | 19.17929 | 31713 ft | 530 kts | 152° |
| 2026-04-23 19:03 | 53.17409 | 19.20522 | 32150 ft | 529 kts | 152° |
| 2026-04-23 19:03 | 53.14069 | 19.23112 | 32580 ft | 529 kts | 152° |
| 2026-04-23 19:03 | 53.10741 | 19.25688 | 33001 ft | 528 kts | 152° |
| 2026-04-23 19:04 | 53.07404 | 19.28267 | 33417 ft | 528 kts | 152° |
| 2026-04-23 19:04 | 53.04068 | 19.30842 | 33815 ft | 528 kts | 152° |
| 2026-04-23 19:04 | 53.00735 | 19.33409 | 34178 ft | 527 kts | 152° |
| 2026-04-23 19:04 | 52.97409 | 19.35966 | 34540 ft | 526 kts | 152° |
| 2026-04-23 19:05 | 52.94092 | 19.38512 | 34894 ft | 524 kts | 151° |
| 2026-04-23 19:05 | 52.90778 | 19.41052 | 35039 ft | 523 kts | 151° |
| 2026-04-23 19:05 | 52.87480 | 19.43575 | 35071 ft | 522 kts | 151° |
| 2026-04-23 19:06 | 52.80928 | 19.48577 | 35069 ft | 521 kts | 151° |
| 2026-04-23 19:06 | 52.74334 | 19.53594 | 35070 ft | 521 kts | 151° |
| 2026-04-23 19:07 | 52.67730 | 19.58601 | 35069 ft | 521 kts | 151° |
| 2026-04-23 19:07 | 52.61139 | 19.63581 | 35053 ft | 521 kts | 151° |
| 2026-04-23 19:08 | 52.54548 | 19.68545 | 35059 ft | 521 kts | 152° |
| 2026-04-23 19:08 | 52.47952 | 19.73496 | 35056 ft | 521 kts | 152° |
| 2026-04-23 19:09 | 52.41402 | 19.78396 | 35057 ft | 521 kts | 152° |
| 2026-04-23 19:09 | 52.34811 | 19.83310 | 35057 ft | 520 kts | 152° |
| 2026-04-23 19:10 | 52.28210 | 19.88216 | 35046 ft | 520 kts | 152° |
| 2026-04-23 19:10 | 52.21621 | 19.93097 | 35053 ft | 519 kts | 152° |
| 2026-04-23 19:11 | 52.15039 | 19.97957 | 35049 ft | 519 kts | 152° |
| 2026-04-23 19:11 | 52.08501 | 20.02770 | 35046 ft | 519 kts | 152° |
| 2026-04-23 19:12 | 52.01925 | 20.07593 | 35048 ft | 518 kts | 152° |
| 2026-04-23 19:12 | 51.95345 | 20.12405 | 35044 ft | 518 kts | 152° |
| 2026-04-23 19:13 | 51.88768 | 20.17198 | 35039 ft | 518 kts | 152° |
| 2026-04-23 19:13 | 51.82199 | 20.21971 | 35039 ft | 517 kts | 152° |
| 2026-04-23 19:14 | 51.75631 | 20.26728 | 35036 ft | 517 kts | 152° |
| 2026-04-23 19:14 | 51.69053 | 20.31478 | 35038 ft | 517 kts | 152° |
| 2026-04-23 19:15 | 51.62468 | 20.36220 | 35031 ft | 517 kts | 152° |
| 2026-04-23 19:15 | 51.55936 | 20.40909 | 35030 ft | 517 kts | 152° |
| 2026-04-23 19:16 | 51.49368 | 20.45605 | 35026 ft | 516 kts | 152° |
| 2026-04-23 19:16 | 51.42802 | 20.50285 | 35026 ft | 516 kts | 152° |
| 2026-04-23 19:17 | 51.32941 | 20.57286 | 35022 ft | 516 kts | 152° |
| 2026-04-23 19:17 | 51.26374 | 20.61930 | 35016 ft | 516 kts | 152° |
| 2026-04-23 19:18 | 51.19858 | 20.66523 | 34744 ft | 516 kts | 152° |
| 2026-04-23 19:18 | 51.16559 | 20.68843 | 34318 ft | 519 kts | 152° |
| 2026-04-23 19:18 | 51.13241 | 20.71174 | 33522 ft | 523 kts | 152° |
| 2026-04-23 19:19 | 51.06534 | 20.75876 | 31670 ft | 529 kts | 153° |
| 2026-04-23 19:19 | 51.03151 | 20.78242 | 30726 ft | 532 kts | 153° |
| 2026-04-23 19:20 | 50.96369 | 20.82967 | 29099 ft | 527 kts | 153° |
| 2026-04-23 19:20 | 50.93027 | 20.85287 | 28396 ft | 521 kts | 153° |
| 2026-04-23 19:20 | 50.89722 | 20.87580 | 27685 ft | 516 kts | 153° |
| 2026-04-23 19:20 | 50.86448 | 20.89850 | 26977 ft | 511 kts | 154° |
| 2026-04-23 19:21 | 50.83193 | 20.92105 | 26281 ft | 507 kts | 154° |
| 2026-04-23 19:21 | 50.76822 | 20.96509 | 24919 ft | 499 kts | 154° |
| 2026-04-23 19:21 | 50.73655 | 20.98693 | 24282 ft | 494 kts | 154° |
| 2026-04-23 19:22 | 50.70517 | 21.00853 | 23671 ft | 488 kts | 154° |
| 2026-04-23 19:22 | 50.67411 | 21.02988 | 23008 ft | 483 kts | 154° |
| 2026-04-23 19:22 | 50.61321 | 21.07164 | 21681 ft | 472 kts | 154° |
| 2026-04-23 19:23 | 50.58320 | 21.09217 | 21026 ft | 467 kts | 154° |
| 2026-04-23 19:23 | 50.55356 | 21.11243 | 20383 ft | 462 kts | 154° |
| 2026-04-23 19:23 | 50.52416 | 21.13251 | 19748 ft | 457 kts | 154° |
| 2026-04-23 19:24 | 50.46637 | 21.17191 | 18510 ft | 449 kts | 154° |
| 2026-04-23 19:24 | 50.43819 | 21.19109 | 17871 ft | 445 kts | 154° |
| 2026-04-23 19:24 | 50.38834 | 21.24368 | 16558 ft | 423 kts | 126° |
| 2026-04-23 19:25 | 50.36266 | 21.32216 | 15447 ft | 396 kts | 102° |
| 2026-04-23 19:25 | 50.34547 | 21.40291 | 14515 ft | 383 kts | 104° |
| 2026-04-23 19:26 | 50.32639 | 21.47976 | 13524 ft | 376 kts | 107° |
| 2026-04-23 19:26 | 50.31647 | 21.51713 | 13127 ft | 368 kts | 107° |
| 2026-04-23 19:27 | 50.29694 | 21.58949 | 12296 ft | 359 kts | 108° |
| 2026-04-23 19:27 | 50.25919 | 21.69024 | 10879 ft | 355 kts | 118° |
| 2026-04-23 19:28 | 50.23300 | 21.75430 | 10275 ft | 339 kts | 118° |
| 2026-04-23 19:28 | 50.20852 | 21.81405 | 9954 ft | 316 kts | 118° |
| 2026-04-23 19:29 | 50.19869 | 21.84395 | 9698 ft | 301 kts | 102° |
| 2026-04-23 19:29 | 50.19454 | 21.90608 | 9125 ft | 283 kts | 84° |
| 2026-04-23 19:30 | 50.19384 | 21.96705 | 8388 ft | 279 kts | 85° |
| 2026-04-23 19:30 | 50.19344 | 21.99684 | 8057 ft | 277 kts | 85° |
| 2026-04-23 19:30 | 50.19268 | 22.05683 | 7311 ft | 275 kts | 85° |
| 2026-04-23 19:31 | 50.19229 | 22.08656 | 6968 ft | 273 kts | 85° |
| 2026-04-23 19:31 | 50.19190 | 22.11608 | 6614 ft | 272 kts | 85° |
| 2026-04-23 19:31 | 50.19151 | 22.14564 | 6247 ft | 271 kts | 86° |
| 2026-04-23 19:31 | 50.19110 | 22.17530 | 6041 ft | 280 kts | 86° |
| 2026-04-23 19:32 | 50.19063 | 22.20597 | 5925 ft | 282 kts | 86° |
| 2026-04-23 19:32 | 50.19007 | 22.23617 | 5560 ft | 283 kts | 86° |
| 2026-04-23 19:32 | 50.18947 | 22.26680 | 5138 ft | 282 kts | 86° |
| 2026-04-23 19:32 | 50.18634 | 22.29726 | 4719 ft | 289 kts | 108° |
| 2026-04-23 19:33 | 50.17501 | 22.32276 | 4571 ft | 283 kts | 137° |
| 2026-04-23 19:33 | 50.15835 | 22.33716 | 4400 ft | 268 kts | 167° |
| 2026-04-23 19:33 | 50.12386 | 22.33291 | 4185 ft | 236 kts | 207° |
| 2026-04-23 19:34 | 50.11146 | 22.31894 | 4069 ft | 209 kts | 243° |
| 2026-04-23 19:34 | 50.10621 | 22.29962 | 3998 ft | 184 kts | 273° |
| 2026-04-23 19:34 | 50.10679 | 22.25979 | 3898 ft | 180 kts | 278° |
| 2026-04-23 19:35 | 50.10691 | 22.24179 | 3825 ft | 156 kts | 281° |
| 2026-04-23 19:35 | 50.10714 | 22.22558 | 3665 ft | 141 kts | 282° |
| 2026-04-23 19:35 | 50.10737 | 22.21078 | 3425 ft | 135 kts | 282° |
| 2026-04-23 19:35 | 50.10752 | 22.19701 | 3271 ft | 123 kts | 284° |
| 2026-04-23 19:36 | 50.10775 | 22.18371 | 2964 ft | 123 kts | 283° |
| 2026-04-23 19:36 | 50.10791 | 22.17050 | 2687 ft | 120 kts | 283° |
| 2026-04-23 19:36 | 50.10809 | 22.15762 | 2414 ft | 118 kts | 283° |
| 2026-04-23 19:36 | 50.10828 | 22.14482 | 2146 ft | 119 kts | 282° |
| 2026-04-23 19:37 | 50.10842 | 22.13210 | 1876 ft | 115 kts | 283° |
| 2026-04-23 19:37 | 50.10863 | 22.11942 | 1682 ft | 120 kts | 282° |
| 2026-04-23 19:37 | 50.10879 | 22.10640 | 1495 ft | 121 kts | 279° |
| 2026-04-23 19:37 | 50.10891 | 22.09339 | 1332 ft | 119 kts | 275° |
| 2026-04-23 19:38 | 50.10906 | 22.08028 | 1173 ft | 120 kts | 276° |
| 2026-04-23 19:38 | 50.10934 | 22.06736 | 1009 ft | 122 kts | 273° |
| 2026-04-23 19:38 | 50.10938 | 22.05435 | 814 ft | 117 kts | 274° |
| 2026-04-23 19:38 | 50.10965 | 22.04137 | 684 ft | 120 kts | 274° |
| 2026-04-23 19:39 | 50.10982 | 22.03107 | 688 ft | 57 kts | 270° |
| 2026-04-23 19:39 | 50.10986 | 22.02822 | 694 ft | 19 kts | 271° |
| 2026-04-23 19:39 | 50.11043 | 22.02740 | 693 ft | 14 kts | 360° |
| 2026-04-23 19:39 | 50.11161 | 22.02741 | 684 ft | 8 kts | 1° |
| 2026-04-23 19:40 | 50.11277 | 22.02744 | 684 ft | 8 kts | 1° |
| 2026-04-23 19:40 | 50.11346 | 22.02713 | 684 ft | 9 kts | 343° |
| 2026-04-23 19:40 | 50.11413 | 22.02711 | 691 ft | 8 kts | 1° |
| 2026-04-23 19:40 | 50.11428 | 22.02712 | 691 ft | 0 kts | 1° |